Time;durP1;ratioP1;P1;durP2;ratioP2;P2;SDS_P1;SDS_P2;PMS_P1;PMS_P2;Temp;Humidity;BMP_temperature;BMP_pressure;BME280_temperature;BME280_humidity;BME280_pressure;Samples;Min_cycle;Max_cycle;Signal;HPM_P1;HPM_P2
2022/03/04 00:02:12;;;;;;;28.63;17.17;;;;;;;;;;6206144;28;20062;-72
2022/03/04 00:05:14;;;;;;;25.88;16.90;;;;;;;;;;6211248;28;20205;-72
2022/03/04 00:08:15;;;;;;;25.90;16.98;;;;;;;;;;6209344;28;20413;-72
2022/03/04 00:11:17;;;;;;;28.65;17.98;;;;;;;;;;6210081;28;20073;-73
2022/03/04 00:14:19;;;;;;;27.40;17.60;;;;;;;;;;6204795;28;20058;-72
2022/03/04 00:17:22;;;;;;;30.83;17.67;;;;;;;;;;6205982;28;20054;-73
2022/03/04 00:20:24;;;;;;;30.75;18.27;;;;;;;;;;6200443;28;20128;-75
2022/03/04 00:23:26;;;;;;;23.00;15.80;;;;;;;;;;6210976;28;20204;-73
2022/03/04 00:26:27;;;;;;;25.13;15.93;;;;;;;;;;6219684;28;20048;-73
2022/03/04 00:29:29;;;;;;;25.73;15.90;;;;;;;;;;6207190;28;20137;-72
2022/03/04 00:32:32;;;;;;;27.58;16.77;;;;;;;;;;6213771;28;20062;-72
2022/03/04 00:35:33;;;;;;;26.25;17.35;;;;;;;;;;6212038;28;20050;-74
2022/03/04 00:38:35;;;;;;;28.27;18.23;;;;;;;;;;6207924;28;20169;-73
2022/03/04 00:41:36;;;;;;;26.45;17.20;;;;;;;;;;6205382;28;20125;-73
2022/03/04 00:44:38;;;;;;;29.98;18.05;;;;;;;;;;6206067;28;20132;-72
2022/03/04 00:47:41;;;;;;;29.98;18.10;;;;;;;;;;6204719;28;20050;-72
2022/03/04 00:50:42;;;;;;;29.17;18.42;;;;;;;;;;6202384;28;20117;-72
2022/03/04 00:53:44;;;;;;;29.83;17.98;;;;;;;;;;6203955;28;20136;-72
2022/03/04 00:56:46;;;;;;;26.38;17.90;;;;;;;;;;6208296;28;20137;-72
2022/03/04 00:59:47;;;;;;;27.77;19.33;;;;;;;;;;6207567;28;20096;-74
2022/03/04 01:02:50;;;;;;;33.65;19.95;;;;;;;;;;6210022;28;20128;-73
2022/03/04 01:05:52;;;;;;;28.70;18.10;;;;;;;;;;6207521;28;20140;-72
2022/03/04 01:08:53;;;;;;;29.23;19.00;;;;;;;;;;6211742;28;20542;-72
2022/03/04 01:11:55;;;;;;;32.17;20.48;;;;;;;;;;6209620;28;20058;-72
2022/03/04 01:14:56;;;;;;;35.80;21.95;;;;;;;;;;6207940;28;20049;-72
2022/03/04 01:17:59;;;;;;;35.58;22.58;;;;;;;;;;6206027;28;20061;-72
2022/03/04 01:21:01;;;;;;;38.22;22.45;;;;;;;;;;6206094;28;20066;-72
2022/03/04 01:24:03;;;;;;;34.90;22.08;;;;;;;;;;6205290;28;20153;-72
2022/03/04 01:27:05;;;;;;;37.65;22.83;;;;;;;;;;6207068;28;20727;-72
2022/03/04 01:30:09;;;;;;;34.83;23.13;;;;;;;;;;6179332;28;20073;-72
2022/03/04 01:33:12;;;;;;;39.72;23.10;;;;;;;;;;6175208;28;20047;-69
2022/03/04 01:36:13;;;;;;;38.50;23.40;;;;;;;;;;6184597;28;20084;-71
2022/03/04 01:39:15;;;;;;;35.90;23.27;;;;;;;;;;6184415;28;20132;-71
2022/03/04 01:42:17;;;;;;;37.33;23.38;;;;;;;;;;6183342;28;20046;-71
2022/03/04 01:45:18;;;;;;;39.40;23.02;;;;;;;;;;6181149;28;20094;-71
2022/03/04 01:48:22;;;;;;;39.45;24.00;;;;;;;;;;6188420;28;20603;-71
2022/03/04 01:51:24;;;;;;;39.20;23.92;;;;;;;;;;6180603;28;20125;-70
2022/03/04 01:54:25;;;;;;;38.53;24.48;;;;;;;;;;6181333;28;20070;-71
2022/03/04 01:57:27;;;;;;;44.10;25.08;;;;;;;;;;6181188;28;20054;-70
2022/03/04 02:00:28;;;;;;;40.20;24.52;;;;;;;;;;6183546;28;20763;-71
2022/03/04 02:03:31;;;;;;;44.75;24.95;;;;;;;;;;6176745;28;20051;-72
2022/03/04 02:06:33;;;;;;;42.47;25.15;;;;;;;;;;6177177;28;20316;-71
2022/03/04 02:09:35;;;;;;;43.85;26.08;;;;;;;;;;6188770;28;20053;-71
2022/03/04 02:12:37;;;;;;;45.15;26.08;;;;;;;;;;6186930;28;20499;-71
2022/03/04 02:15:38;;;;;;;44.17;26.70;;;;;;;;;;6186669;28;20062;-72
2022/03/04 02:18:41;;;;;;;46.33;26.63;;;;;;;;;;6180384;28;20047;-71
2022/03/04 02:21:48;;;;;;;46.17;26.73;;;;;;;;;;6182159;28;20181;-71
2022/03/04 02:24:50;;;;;;;46.53;27.23;;;;;;;;;;6183170;28;20050;-71
2022/03/04 02:27:52;;;;;;;43.90;25.85;;;;;;;;;;6196003;28;20777;-71
2022/03/04 02:30:53;;;;;;;46.65;27.13;;;;;;;;;;6210509;28;20046;-72
2022/03/04 02:33:55;;;;;;;46.40;27.38;;;;;;;;;;6211267;28;20253;-71
2022/03/04 02:36:58;;;;;;;44.40;26.27;;;;;;;;;;6207853;28;20469;-71
2022/03/04 02:39:59;;;;;;;45.95;26.58;;;;;;;;;;6206912;28;20169;-71
2022/03/04 02:43:01;;;;;;;45.55;27.83;;;;;;;;;;6204453;28;20038;-71
2022/03/04 02:46:03;;;;;;;47.20;27.73;;;;;;;;;;6213661;28;20054;-71
2022/03/04 02:49:06;;;;;;;46.50;27.23;;;;;;;;;;6211029;28;21090;-72
2022/03/04 02:52:09;;;;;;;44.33;27.02;;;;;;;;;;6209642;28;20164;-71
2022/03/04 02:55:11;;;;;;;46.65;27.15;;;;;;;;;;6207092;28;20057;-71
2022/03/04 02:58:13;;;;;;;44.85;27.00;;;;;;;;;;6206902;28;20085;-71
2022/03/04 03:01:15;;;;;;;40.97;25.52;;;;;;;;;;6206286;28;20474;-71
2022/03/04 03:04:18;;;;;;;42.80;26.52;;;;;;;;;;6203400;28;20521;-71
2022/03/04 03:07:21;;;;;;;51.47;28.80;;;;;;;;;;6212291;28;20552;-72
2022/03/04 03:10:23;;;;;;;46.30;28.13;;;;;;;;;;6208776;28;20558;-71
2022/03/04 03:13:24;;;;;;;47.70;28.02;;;;;;;;;;6208518;28;20129;-71
2022/03/04 03:16:26;;;;;;;50.30;27.77;;;;;;;;;;6210154;28;20051;-71
2022/03/04 03:19:27;;;;;;;48.22;28.63;;;;;;;;;;6211130;28;20090;-71
2022/03/04 03:22:31;;;;;;;45.45;28.35;;;;;;;;;;6215240;28;20132;-72
2022/03/04 03:25:32;;;;;;;45.10;27.25;;;;;;;;;;6208439;28;20115;-71
2022/03/04 03:28:34;;;;;;;49.20;28.73;;;;;;;;;;6211706;28;20146;-71
2022/03/04 03:31:35;;;;;;;44.47;27.42;;;;;;;;;;6211799;28;20060;-74
2022/03/04 03:34:37;;;;;;;45.00;27.65;;;;;;;;;;6206562;28;20054;-71
2022/03/04 03:37:40;;;;;;;44.95;26.65;;;;;;;;;;6208003;28;20133;-72
2022/03/04 03:40:42;;;;;;;44.22;27.40;;;;;;;;;;6206518;28;20196;-72
2022/03/04 03:43:45;;;;;;;46.63;28.15;;;;;;;;;;6206073;28;20166;-72
2022/03/04 03:46:47;;;;;;;53.67;29.33;;;;;;;;;;6208692;28;20050;-72
2022/03/04 03:49:49;;;;;;;46.95;27.15;;;;;;;;;;6208266;28;20128;-71
2022/03/04 03:52:52;;;;;;;45.47;28.50;;;;;;;;;;6207175;28;20184;-72
2022/03/04 03:55:53;;;;;;;51.40;28.70;;;;;;;;;;6209634;28;20129;-71
2022/03/04 03:58:55;;;;;;;46.72;29.67;;;;;;;;;;6211188;28;20129;-72
2022/03/04 04:01:58;;;;;;;43.17;27.25;;;;;;;;;;6210127;28;20393;-71
2022/03/04 04:05:00;;;;;;;50.08;28.73;;;;;;;;;;6212193;28;20402;-71
2022/03/04 04:08:03;;;;;;;47.33;28.15;;;;;;;;;;6210152;28;20038;-71
2022/03/04 04:11:04;;;;;;;46.38;28.63;;;;;;;;;;6213150;28;20173;-71
2022/03/04 04:14:08;;;;;;;49.17;29.38;;;;;;;;;;6209666;28;20116;-71
2022/03/04 04:17:10;;;;;;;46.70;28.45;;;;;;;;;;6208035;28;20052;-71
2022/03/04 04:20:12;;;;;;;48.10;28.08;;;;;;;;;;6206951;28;20514;-71
2022/03/04 04:23:15;;;;;;;46.60;27.83;;;;;;;;;;6207116;28;20136;-70
2022/03/04 04:26:16;;;;;;;48.92;28.65;;;;;;;;;;6208389;28;20219;-71
2022/03/04 04:29:18;;;;;;;47.28;28.33;;;;;;;;;;6217410;28;20115;-70
2022/03/04 04:32:19;;;;;;;47.75;28.85;;;;;;;;;;6218709;28;20517;-71
2022/03/04 04:35:21;;;;;;;50.92;30.52;;;;;;;;;;6219205;28;20050;-70
2022/03/04 04:38:24;;;;;;;51.92;28.77;;;;;;;;;;6213138;28;20073;-71
2022/03/04 04:41:26;;;;;;;48.20;27.55;;;;;;;;;;6212786;28;20125;-71
2022/03/04 04:44:27;;;;;;;49.28;29.33;;;;;;;;;;6210209;28;20065;-70
2022/03/04 04:47:29;;;;;;;46.80;27.88;;;;;;;;;;6209887;28;20155;-71
2022/03/04 04:50:30;;;;;;;59.60;30.23;;;;;;;;;;6207107;28;20128;-72
2022/03/04 04:53:34;;;;;;;48.30;28.33;;;;;;;;;;6207685;28;20116;-71
2022/03/04 04:56:36;;;;;;;48.58;29.20;;;;;;;;;;6207386;28;20556;-69
2022/03/04 04:59:37;;;;;;;44.92;27.42;;;;;;;;;;6203431;28;20049;-70
2022/03/04 05:02:39;;;;;;;49.58;29.20;;;;;;;;;;6205823;28;20133;-72
2022/03/04 05:05:40;;;;;;;51.28;29.25;;;;;;;;;;6213479;28;20054;-69
2022/03/04 05:08:43;;;;;;;48.10;28.38;;;;;;;;;;6219238;28;20129;-70
2022/03/04 05:11:45;;;;;;;49.47;28.90;;;;;;;;;;6209973;28;20073;-72
2022/03/04 05:14:46;;;;;;;48.55;29.45;;;;;;;;;;6210390;28;20192;-71
2022/03/04 05:17:50;;;;;;;57.38;30.08;;;;;;;;;;6213479;28;20048;-70
2022/03/04 05:20:52;;;;;;;53.78;29.90;;;;;;;;;;6210793;28;20042;-69
2022/03/04 05:24:01;;;;;;;50.67;29.13;;;;;;;;;;6208246;28;20511;-71
2022/03/04 05:27:02;;;;;;;51.60;30.85;;;;;;;;;;6207571;28;20167;-69
2022/03/04 05:30:05;;;;;;;47.83;28.23;;;;;;;;;;6212337;28;20409;-70
2022/03/04 05:33:07;;;;;;;48.78;29.15;;;;;;;;;;6206964;28;20058;-70
2022/03/04 05:36:08;;;;;;;51.13;31.20;;;;;;;;;;6209025;28;20132;-70
2022/03/04 05:39:11;;;;;;;49.03;28.98;;;;;;;;;;6211535;28;20391;-70
2022/03/04 05:42:13;;;;;;;48.25;28.95;;;;;;;;;;6213355;28;20506;-70
2022/03/04 05:45:14;;;;;;;52.60;29.38;;;;;;;;;;6209890;28;20058;-70
2022/03/04 05:48:16;;;;;;;51.80;30.55;;;;;;;;;;6213974;28;20046;-70
2022/03/04 05:51:18;;;;;;;49.50;29.42;;;;;;;;;;6213480;28;20042;-70
2022/03/04 05:54:21;;;;;;;52.78;28.85;;;;;;;;;;6210288;28;20066;-70
2022/03/04 05:57:22;;;;;;;54.17;29.42;;;;;;;;;;6207383;28;20129;-70
2022/03/04 06:00:25;;;;;;;53.92;29.38;;;;;;;;;;6208572;28;20184;-70
2022/03/04 06:03:27;;;;;;;55.47;29.90;;;;;;;;;;6210981;28;20136;-70
2022/03/04 06:06:29;;;;;;;51.28;29.95;;;;;;;;;;6209708;28;20061;-69
2022/03/04 06:09:32;;;;;;;47.47;28.55;;;;;;;;;;6212940;28;20572;-69
2022/03/04 06:12:34;;;;;;;48.83;28.40;;;;;;;;;;6207395;28;20066;-70
2022/03/04 06:15:35;;;;;;;49.97;30.42;;;;;;;;;;6213580;28;20451;-70
2022/03/04 06:18:37;;;;;;;50.08;28.48;;;;;;;;;;6213078;28;20046;-71
2022/03/04 06:21:39;;;;;;;49.92;27.38;;;;;;;;;;6216507;28;20490;-70
2022/03/04 06:24:42;;;;;;;49.03;29.42;;;;;;;;;;6211507;28;20422;-71
2022/03/04 06:27:54;;;;;;;44.35;26.38;;;;;;;;;;6211892;28;20426;-69
2022/03/04 06:30:55;;;;;;;51.08;29.35;;;;;;;;;;6210530;28;20465;-71
2022/03/04 06:33:57;;;;;;;44.95;26.75;;;;;;;;;;6213469;28;20132;-73
2022/03/04 06:36:58;;;;;;;51.90;29.42;;;;;;;;;;6211438;28;20038;-71
2022/03/04 06:40:03;;;;;;;48.03;28.33;;;;;;;;;;6209827;28;20052;-72
2022/03/04 06:43:05;;;;;;;50.97;28.70;;;;;;;;;;6211087;28;20064;-71
2022/03/04 06:46:07;;;;;;;49.60;29.80;;;;;;;;;;6202615;28;20166;-73
2022/03/04 06:49:10;;;;;;;51.92;30.30;;;;;;;;;;6211071;28;20049;-75
2022/03/04 06:52:11;;;;;;;54.80;31.85;;;;;;;;;;6209838;28;20621;-73
2022/03/04 06:55:15;;;;;;;52.47;31.35;;;;;;;;;;6210879;28;20046;-74
2022/03/04 06:58:16;;;;;;;56.72;32.38;;;;;;;;;;6204460;28;20053;-72
2022/03/04 07:01:18;;;;;;;50.10;29.85;;;;;;;;;;6214880;28;20104;-71
2022/03/04 07:04:19;;;;;;;49.13;28.92;;;;;;;;;;6214913;28;20073;-76
2022/03/04 07:07:21;;;;;;;52.22;29.13;;;;;;;;;;6213520;28;20077;-71
2022/03/04 07:10:24;;;;;;;52.80;28.05;;;;;;;;;;6215532;28;20180;-72
2022/03/04 07:13:26;;;;;;;49.55;29.17;;;;;;;;;;6208770;28;20104;-71
2022/03/04 07:16:27;;;;;;;48.65;26.98;;;;;;;;;;6208218;28;20050;-71
2022/03/04 07:19:29;;;;;;;44.95;27.65;;;;;;;;;;6211119;28;20058;-78
2022/03/04 07:22:30;;;;;;;50.03;28.73;;;;;;;;;;6209958;28;20136;-75
2022/03/04 07:25:34;;;;;;;44.40;27.65;;;;;;;;;;6212469;28;20484;-73
2022/03/04 07:28:35;;;;;;;47.33;26.43;;;;;;;;;;6210854;28;20046;-72
2022/03/04 07:31:37;;;;;;;47.20;28.33;;;;;;;;;;6211719;28;20120;-71
2022/03/04 07:34:38;;;;;;;44.25;27.02;;;;;;;;;;6206727;28;20145;-73
2022/03/04 07:37:41;;;;;;;45.88;27.23;;;;;;;;;;6207387;28;20122;-73
2022/03/04 07:40:44;;;;;;;46.13;26.92;;;;;;;;;;6208801;28;20506;-74
2022/03/04 07:43:46;;;;;;;43.28;26.33;;;;;;;;;;6208317;28;20124;-73
2022/03/04 07:46:47;;;;;;;44.85;26.30;;;;;;;;;;6208821;28;20131;-73
2022/03/04 07:49:49;;;;;;;46.97;27.88;;;;;;;;;;6212948;28;20038;-73
2022/03/04 07:52:51;;;;;;;44.10;26.27;;;;;;;;;;6211440;28;20109;-72
2022/03/04 07:55:54;;;;;;;44.35;27.05;;;;;;;;;;6202989;28;20184;-72
2022/03/04 07:58:55;;;;;;;43.63;27.23;;;;;;;;;;6213973;28;20259;-72
2022/03/04 08:01:57;;;;;;;44.15;28.00;;;;;;;;;;6211827;28;20172;-74
2022/03/04 08:04:58;;;;;;;43.10;27.25;;;;;;;;;;6208424;28;20076;-73
2022/03/04 08:08:00;;;;;;;49.17;28.52;;;;;;;;;;6207767;28;20054;-73
2022/03/04 08:11:03;;;;;;;46.35;28.38;;;;;;;;;;6204776;28;20474;-73
2022/03/04 08:14:04;;;;;;;47.97;29.88;;;;;;;;;;6210772;28;20058;-76
2022/03/04 08:17:06;;;;;;;47.85;28.70;;;;;;;;;;6217165;28;20065;-72
2022/03/04 08:20:09;;;;;;;47.95;29.83;;;;;;;;;;6213968;28;20478;-76
2022/03/04 08:23:11;;;;;;;50.10;29.20;;;;;;;;;;6210696;28;20052;-72
2022/03/04 08:26:14;;;;;;;52.72;28.65;;;;;;;;;;6216688;28;20045;-79
2022/03/04 08:29:16;;;;;;;47.47;29.13;;;;;;;;;;6203572;28;20109;-72
2022/03/04 08:32:18;;;;;;;51.25;31.25;;;;;;;;;;6208800;28;20049;-70
2022/03/04 08:35:20;;;;;;;45.58;29.50;;;;;;;;;;6210551;28;20046;-71
2022/03/04 08:38:22;;;;;;;48.10;30.23;;;;;;;;;;6217029;28;20124;-71
2022/03/04 08:41:25;;;;;;;54.45;31.38;;;;;;;;;;6209068;28;20046;-71
2022/03/04 08:44:26;;;;;;;49.78;29.35;;;;;;;;;;6218189;28;20050;-73
2022/03/04 08:47:28;;;;;;;48.50;31.17;;;;;;;;;;6206830;28;20081;-72
2022/03/04 08:50:29;;;;;;;48.45;30.00;;;;;;;;;;6207981;28;20137;-75
2022/03/04 08:53:31;;;;;;;46.70;29.05;;;;;;;;;;6201014;28;20189;-75
2022/03/04 08:56:34;;;;;;;46.78;28.70;;;;;;;;;;6202627;28;20129;-67
2022/03/04 08:59:36;;;;;;;45.47;29.42;;;;;;;;;;6204908;28;20095;-67
2022/03/04 09:02:38;;;;;;;48.97;29.50;;;;;;;;;;6203181;28;20046;-67
2022/03/04 09:05:39;;;;;;;40.88;27.75;;;;;;;;;;6204201;28;20524;-75
2022/03/04 09:08:41;;;;;;;44.50;29.80;;;;;;;;;;6208428;28;20050;-74
2022/03/04 09:11:44;;;;;;;47.35;28.73;;;;;;;;;;6204822;28;20094;-75
2022/03/04 09:14:45;;;;;;;48.88;28.92;;;;;;;;;;6206674;28;20455;-75
2022/03/04 09:17:47;;;;;;;45.15;28.80;;;;;;;;;;6213522;28;20043;-74
2022/03/04 09:20:49;;;;;;;44.90;29.20;;;;;;;;;;6202060;28;20089;-73
2022/03/04 09:23:50;;;;;;;42.78;28.08;;;;;;;;;;6208327;28;20085;-73
2022/03/04 09:26:54;;;;;;;42.22;27.88;;;;;;;;;;6202489;28;20045;-74
2022/03/04 09:29:56;;;;;;;42.20;28.17;;;;;;;;;;6199202;28;20141;-76
2022/03/04 09:32:58;;;;;;;41.45;28.27;;;;;;;;;;6195985;28;20046;-74
2022/03/04 09:36:00;;;;;;;43.28;28.20;;;;;;;;;;6211267;28;20209;-74
2022/03/04 09:39:02;;;;;;;43.30;27.50;;;;;;;;;;6211442;28;20100;-74
2022/03/04 09:42:07;;;;;;;48.70;29.38;;;;;;;;;;6215380;28;20132;-75
2022/03/04 09:45:10;;;;;;;46.00;28.95;;;;;;;;;;6209500;28;20046;-75
2022/03/04 09:48:12;;;;;;;41.22;27.27;;;;;;;;;;6215451;28;20132;-75
2022/03/04 09:51:14;;;;;;;44.78;29.58;;;;;;;;;;6215443;28;20172;-74
2022/03/04 09:54:16;;;;;;;44.25;29.20;;;;;;;;;;6215167;28;20100;-76
2022/03/04 09:57:19;;;;;;;46.95;29.90;;;;;;;;;;6215083;28;20046;-75
2022/03/04 10:00:21;;;;;;;46.95;28.58;;;;;;;;;;6215239;28;20050;-75
2022/03/04 10:03:42;;;;;;;45.83;28.92;;;;;;;;;;6213580;28;20069;-76
2022/03/04 10:06:48;;;;;;;42.65;28.55;;;;;;;;;;6214390;28;20140;-73
2022/03/04 10:09:50;;;;;;;42.60;28.00;;;;;;;;;;6213998;28;20422;-75
2022/03/04 10:12:56;;;;;;;43.50;29.25;;;;;;;;;;6208112;28;20564;-77
2022/03/04 10:15:58;;;;;;;43.72;28.10;;;;;;;;;;6202921;28;20054;-74
2022/03/04 10:19:09;;;;;;;42.67;28.73;;;;;;;;;;6213714;28;20486;-74
2022/03/04 10:22:11;;;;;;;44.90;27.73;;;;;;;;;;6216652;28;20559;-73
2022/03/04 10:25:18;;;;;;;42.55;28.10;;;;;;;;;;6215097;28;20497;-74
2022/03/04 10:28:23;;;;;;;41.55;28.13;;;;;;;;;;6218564;28;20129;-74
2022/03/04 10:31:26;;;;;;;42.30;28.25;;;;;;;;;;6217860;28;20057;-74
2022/03/04 10:34:28;;;;;;;44.53;27.30;;;;;;;;;;6217393;28;20171;-74
2022/03/04 10:37:41;;;;;;;41.33;26.85;;;;;;;;;;6213516;28;20045;-73
2022/03/04 10:40:43;;;;;;;41.97;28.27;;;;;;;;;;6212536;28;20066;-74
2022/03/04 10:43:46;;;;;;;41.50;28.63;;;;;;;;;;6211674;28;20057;-74
2022/03/04 10:46:54;;;;;;;40.67;28.05;;;;;;;;;;6209276;28;20064;-75
2022/03/04 10:49:56;;;;;;;44.53;29.35;;;;;;;;;;6211168;28;20128;-74
2022/03/04 10:52:59;;;;;;;44.92;28.63;;;;;;;;;;6210577;28;20054;-74
2022/03/04 10:56:04;;;;;;;40.47;27.17;;;;;;;;;;6205063;28;20046;-74
2022/03/04 10:59:08;;;;;;;44.75;29.83;;;;;;;;;;6207595;28;20050;-74
2022/03/04 11:02:10;;;;;;;43.35;28.80;;;;;;;;;;6209734;28;20098;-75
2022/03/04 11:05:11;;;;;;;40.47;27.92;;;;;;;;;;6209135;28;20549;-75
2022/03/04 11:08:14;;;;;;;42.67;27.75;;;;;;;;;;6209601;28;20481;-75
2022/03/04 11:11:15;;;;;;;41.10;28.25;;;;;;;;;;6210325;28;20089;-75
2022/03/04 11:14:20;;;;;;;43.05;29.25;;;;;;;;;;6211008;28;20054;-75
2022/03/04 11:17:22;;;;;;;44.95;29.52;;;;;;;;;;6210432;28;20167;-75
2022/03/04 11:20:24;;;;;;;43.17;28.90;;;;;;;;;;6205576;28;20050;-75
2022/03/04 11:23:27;;;;;;;39.90;28.60;;;;;;;;;;6206451;28;20520;-75
2022/03/04 11:26:30;;;;;;;41.83;29.25;;;;;;;;;;6206171;28;20173;-74
2022/03/04 11:29:34;;;;;;;42.40;26.95;;;;;;;;;;6211718;28;20112;-74
2022/03/04 11:32:36;;;;;;;45.38;29.92;;;;;;;;;;6209493;28;20046;-75
2022/03/04 11:36:10;;;;;;;42.83;30.00;;;;;;;;;;6211179;28;20061;-75
2022/03/04 11:39:12;;;;;;;39.28;29.15;;;;;;;;;;6205696;28;20046;-75
2022/03/04 11:42:15;;;;;;;40.00;28.83;;;;;;;;;;6208818;28;20054;-74
2022/03/04 11:45:29;;;;;;;40.15;28.75;;;;;;;;;;6207352;28;20050;-75
2022/03/04 11:48:30;;;;;;;;;;;;;;;;;;6210846;28;20050;-75
2022/03/04 11:51:32;;;;;;;38.78;28.50;;;;;;;;;;6209776;28;19968;-74
2022/03/04 11:54:34;;;;;;;40.90;28.98;;;;;;;;;;6209032;28;20129;-75
2022/03/04 11:57:37;;;;;;;40.53;30.80;;;;;;;;;;6205667;28;20553;-75
2022/03/04 12:00:40;;;;;;;42.80;29.80;;;;;;;;;;6204899;28;20113;-75
2022/03/04 12:04:05;;;;;;;41.97;30.42;;;;;;;;;;6212991;28;20136;-75
2022/03/04 12:07:07;;;;;;;43.45;29.92;;;;;;;;;;6209045;28;20148;-75
2022/03/04 12:10:10;;;;;;;43.85;32.03;;;;;;;;;;6211060;28;20061;-74
2022/03/04 12:13:15;;;;;;;47.53;32.83;;;;;;;;;;6205586;28;20523;-74
2022/03/04 12:16:22;;;;;;;44.28;33.30;;;;;;;;;;6205558;28;20069;-74
2022/03/04 12:19:30;;;;;;;45.58;34.80;;;;;;;;;;6203993;28;20629;-74
2022/03/04 12:22:45;;;;;;;48.28;34.17;;;;;;;;;;6201905;28;20054;-72
2022/03/04 12:26:13;;;;;;;45.20;33.20;;;;;;;;;;6203027;28;20085;-72
2022/03/04 12:29:15;;;;;;;47.05;33.35;;;;;;;;;;6204969;28;20549;-73
2022/03/04 12:32:18;;;;;;;45.03;33.17;;;;;;;;;;6206733;28;20180;-74
2022/03/04 12:35:21;;;;;;;47.53;33.67;;;;;;;;;;6200843;28;20096;-74
2022/03/04 12:38:22;;;;;;;44.00;32.75;;;;;;;;;;6205628;28;20405;-73
2022/03/04 12:41:25;;;;;;;47.47;33.38;;;;;;;;;;6202053;28;20379;-72
2022/03/04 12:44:28;;;;;;;54.55;34.97;;;;;;;;;;6204755;28;20106;-73
2022/03/04 12:47:36;;;;;;;53.90;34.53;;;;;;;;;;6209817;28;20494;-73
2022/03/04 12:50:37;;;;;;;46.70;33.78;;;;;;;;;;6208140;28;20131;-76
2022/03/04 12:53:39;;;;;;;56.80;35.20;;;;;;;;;;6206135;28;20592;-72
2022/03/04 12:56:41;;;;;;;47.63;34.97;;;;;;;;;;6203927;28;20510;-73
2022/03/04 12:59:47;;;;;;;47.50;33.95;;;;;;;;;;6211991;28;20515;-74
2022/03/04 13:02:50;;;;;;;45.67;33.22;;;;;;;;;;6210546;28;20081;-74
2022/03/04 13:05:52;;;;;;;48.92;34.28;;;;;;;;;;6209581;28;20455;-75
2022/03/04 13:08:56;;;;;;;46.30;33.13;;;;;;;;;;6199281;28;20457;-72
2022/03/04 13:12:03;;;;;;;;;;;;;;;;;;6210474;28;20053;-72
2022/03/04 13:15:09;;;;;;;47.90;31.52;;;;;;;;;;6211887;28;20289;-77
2022/03/04 13:18:12;;;;;;;47.28;34.15;;;;;;;;;;6209271;28;20120;-75
2022/03/04 13:21:13;;;;;;;45.90;31.77;;;;;;;;;;6207383;28;20396;-74
2022/03/04 13:24:26;;;;;;;46.42;33.35;;;;;;;;;;6206481;28;20066;-74
2022/03/04 13:27:37;;;;;;;46.95;32.67;;;;;;;;;;6205310;28;20070;-75
2022/03/04 13:30:57;;;;;;;47.28;31.70;;;;;;;;;;6205538;28;20050;-74
2022/03/04 13:34:03;;;;;;;44.67;33.17;;;;;;;;;;6205866;28;20046;-74
2022/03/04 13:37:09;;;;;;;46.53;32.88;;;;;;;;;;6205085;28;20058;-74
2022/03/04 13:40:15;;;;;;;47.75;33.42;;;;;;;;;;6208872;28;20092;-75
2022/03/04 13:43:27;;;;;;;44.10;32.53;;;;;;;;;;6209053;28;20129;-74
2022/03/04 13:46:29;;;;;;;48.75;33.63;;;;;;;;;;6208002;28;20053;-74
2022/03/04 13:49:46;;;;;;;49.58;34.40;;;;;;;;;;6214389;28;20081;-75
2022/03/04 13:52:49;;;;;;;46.40;33.92;;;;;;;;;;6208178;28;20129;-75
2022/03/04 13:55:57;;;;;;;49.22;32.67;;;;;;;;;;6211119;28;20070;-74
2022/03/04 13:58:59;;;;;;;46.70;33.03;;;;;;;;;;6210747;28;20073;-74
2022/03/04 14:02:05;;;;;;;45.75;33.92;;;;;;;;;;6208493;28;20483;-74
2022/03/04 14:05:09;;;;;;;43.08;32.55;;;;;;;;;;6207578;28;20557;-76
2022/03/04 14:08:13;;;;;;;47.85;34.17;;;;;;;;;;6209395;28;20108;-74
2022/03/04 14:11:15;;;;;;;44.25;33.20;;;;;;;;;;6201866;28;20047;-74
2022/03/04 14:14:17;;;;;;;45.13;32.13;;;;;;;;;;6201326;28;20080;-75
2022/03/04 14:17:18;;;;;;;45.50;33.67;;;;;;;;;;6205963;28;20061;-75
2022/03/04 14:20:21;;;;;;;43.33;32.97;;;;;;;;;;6209019;28;20137;-75
2022/03/04 14:23:23;;;;;;;45.13;34.13;;;;;;;;;;6213897;28;20116;-77
2022/03/04 14:26:24;;;;;;;47.50;32.83;;;;;;;;;;6211127;28;20137;-75
2022/03/04 14:29:26;;;;;;;48.58;35.35;;;;;;;;;;6217602;28;20069;-74
2022/03/04 14:32:28;;;;;;;46.80;33.05;;;;;;;;;;6214824;28;20137;-74
2022/03/04 14:35:32;;;;;;;44.83;33.28;;;;;;;;;;6206496;28;20406;-75
2022/03/04 14:38:34;;;;;;;46.25;32.33;;;;;;;;;;6208240;28;20057;-75
2022/03/04 14:41:36;;;;;;;45.15;33.53;;;;;;;;;;6209005;28;20396;-75
2022/03/04 14:44:38;;;;;;;47.97;33.70;;;;;;;;;;6206481;28;20141;-75
2022/03/04 14:47:42;;;;;;;43.45;32.65;;;;;;;;;;6207618;28;20050;-75
2022/03/04 14:50:45;;;;;;;46.92;32.30;;;;;;;;;;6209505;28;20525;-75
2022/03/04 14:53:47;;;;;;;46.50;33.10;;;;;;;;;;6207984;28;20079;-74
2022/03/04 14:56:49;;;;;;;44.15;32.72;;;;;;;;;;6207165;28;20403;-75
2022/03/04 14:59:50;;;;;;;49.67;32.67;;;;;;;;;;6209245;28;20076;-76
2022/03/04 15:02:53;;;;;;;50.75;33.55;;;;;;;;;;6210035;28;20049;-75
2022/03/04 15:05:55;;;;;;;48.60;33.30;;;;;;;;;;6212469;28;20057;-75
2022/03/04 15:08:57;;;;;;;49.25;34.45;;;;;;;;;;6211473;28;20581;-75
2022/03/04 15:11:59;;;;;;;52.22;32.92;;;;;;;;;;6211022;28;20131;-74
2022/03/04 15:15:00;;;;;;;50.47;31.80;;;;;;;;;;6207419;28;20090;-74
2022/03/04 15:18:02;;;;;;;45.50;30.63;;;;;;;;;;6206423;28;20080;-74
2022/03/04 15:21:05;;;;;;;43.50;30.38;;;;;;;;;;6205955;28;20149;-74
2022/03/04 15:24:07;;;;;;;46.42;30.30;;;;;;;;;;6209676;28;20681;-74
2022/03/04 15:27:10;;;;;;;50.88;31.05;;;;;;;;;;6212034;28;20061;-74
2022/03/04 15:30:13;;;;;;;44.83;29.55;;;;;;;;;;6208275;28;20133;-74
2022/03/04 15:33:14;;;;;;;44.55;30.65;;;;;;;;;;6208342;28;20053;-75
2022/03/04 15:36:18;;;;;;;43.28;29.38;;;;;;;;;;6213773;28;20156;-74
2022/03/04 15:39:20;;;;;;;43.20;28.93;;;;;;;;;;6208471;28;20049;-73
2022/03/04 15:42:22;;;;;;;41.40;29.20;;;;;;;;;;6208902;28;20201;-75
2022/03/04 15:45:23;;;;;;;41.70;28.98;;;;;;;;;;6211402;28;20062;-74
2022/03/04 15:48:25;;;;;;;48.13;28.88;;;;;;;;;;6208215;28;20054;-74
2022/03/04 15:51:28;;;;;;;39.65;25.83;;;;;;;;;;6207921;28;20358;-74
2022/03/04 15:54:30;;;;;;;36.75;26.77;;;;;;;;;;6202811;28;20070;-74
2022/03/04 15:57:32;;;;;;;37.28;26.10;;;;;;;;;;6207882;28;20384;-74
2022/03/04 16:00:34;;;;;;;37.45;26.15;;;;;;;;;;6206541;28;20060;-74
2022/03/04 16:03:36;;;;;;;39.28;26.58;;;;;;;;;;6206321;28;20137;-75
2022/03/04 16:06:39;;;;;;;39.70;26.33;;;;;;;;;;6203281;28;20053;-74
2022/03/04 16:09:41;;;;;;;38.78;25.25;;;;;;;;;;6211138;28;20232;-74
2022/03/04 16:12:42;;;;;;;36.40;24.15;;;;;;;;;;6205904;28;20176;-80
2022/03/04 16:15:44;;;;;;;37.67;24.98;;;;;;;;;;6206958;28;20131;-75
2022/03/04 16:18:46;;;;;;;32.90;23.02;;;;;;;;;;6205569;28;20042;-76
2022/03/04 16:21:49;;;;;;;33.17;23.20;;;;;;;;;;6207407;28;20065;-75
2022/03/04 16:24:51;;;;;;;36.40;21.70;;;;;;;;;;6204237;28;20157;-75
2022/03/04 16:27:52;;;;;;;33.67;22.38;;;;;;;;;;6204665;28;20140;-76
2022/03/04 16:30:54;;;;;;;30.70;20.38;;;;;;;;;;6209668;28;20108;-75
2022/03/04 16:33:56;;;;;;;37.92;22.33;;;;;;;;;;6208869;28;20085;-76
2022/03/04 16:36:59;;;;;;;34.38;21.42;;;;;;;;;;6206898;28;20132;-73
2022/03/04 16:40:01;;;;;;;30.73;20.10;;;;;;;;;;6208852;28;20526;-76
2022/03/04 16:43:02;;;;;;;35.95;21.70;;;;;;;;;;6212380;28;20077;-73
2022/03/04 16:46:04;;;;;;;30.10;18.85;;;;;;;;;;6208867;28;20137;-75
2022/03/04 16:49:06;;;;;;;28.40;17.65;;;;;;;;;;6207838;28;20050;-73
2022/03/04 16:52:09;;;;;;;28.92;18.30;;;;;;;;;;6210883;28;20049;-74
2022/03/04 16:55:10;;;;;;;28.70;18.60;;;;;;;;;;6199803;28;20125;-74
2022/03/04 16:58:12;;;;;;;32.50;18.27;;;;;;;;;;6203554;28;20781;-74
2022/03/04 17:01:14;;;;;;;28.38;18.75;;;;;;;;;;6203791;28;20085;-76
2022/03/04 17:04:16;;;;;;;32.20;18.88;;;;;;;;;;6208335;28;20132;-74
2022/03/04 17:07:19;;;;;;;31.17;17.92;;;;;;;;;;6204317;28;20406;-74
2022/03/04 17:10:21;;;;;;;30.98;17.95;;;;;;;;;;6206065;28;20196;-76
2022/03/04 17:13:22;;;;;;;33.55;18.67;;;;;;;;;;6207200;28;20191;-74
2022/03/04 17:16:24;;;;;;;27.85;17.08;;;;;;;;;;6207213;28;20058;-74
2022/03/04 17:19:25;;;;;;;27.60;16.50;;;;;;;;;;6209072;28;20133;-74
2022/03/04 17:22:29;;;;;;;31.05;17.83;;;;;;;;;;6210336;28;20143;-75
2022/03/04 17:25:30;;;;;;;26.67;16.67;;;;;;;;;;6208873;28;20050;-74
2022/03/04 17:28:32;;;;;;;31.10;17.10;;;;;;;;;;6206982;28;20731;-75
2022/03/04 17:31:34;;;;;;;25.88;16.42;;;;;;;;;;6205629;28;20082;-74
2022/03/04 17:34:36;;;;;;;29.10;16.58;;;;;;;;;;6206696;28;20057;-75
2022/03/04 17:37:39;;;;;;;24.35;16.17;;;;;;;;;;6205387;28;20046;-76
2022/03/04 17:40:41;;;;;;;26.08;16.13;;;;;;;;;;6202776;28;20053;-79
2022/03/04 17:43:42;;;;;;;23.50;15.68;;;;;;;;;;6207364;28;20139;-74
2022/03/04 17:46:44;;;;;;;26.33;15.60;;;;;;;;;;6205659;28;20568;-74